Friday, July 01, 2016
22:30 UTC
  |  Log In   |  Register Free
Airport Search:

Olympia Regional Airport
(KOLM)

Airport information sponsored by:
Glacier Jet Center at Olympia Regional (KOLM), Olympia, WA
FAA data valid effective May 26 2016 - Jul 21 2016 (unless otherwise noted).

 
 
 
 
 
 
 
 
 
 
 
 
 
 
Current Aviation Weather for KOLM

Weather Summary


The most recent METAR observation for OLM was updated at: 12:54 UTC
METAR for KOLM is not available. Closest METAR is for KGRF
KOLM  (most recent observation was updatred at 12:15 UTC)
012154Z 34006KT 10SM FEW060 FEW110 23/12 A3009 RMK AO2 SLP190 T02280117

KGRF  (14.7 nm SW)   (most recent observation was updated at 12:15 UTC)
012158Z 22008KT 190V270 10SM FEW190 23/13 A3009 RMK AO2A SLP193 T02270134 $

KCLS  (17.9 nm NE)   (most recent observation was updated at 12:21 UTC)
012215Z AUTO VRB04KT 10SM FEW120 25/14 A3009 RMK AO2

TAF for KOLM is not available.
KOLM
011736Z 0118/0218 20003KT P6SM SCT020 BKN035 BKN250 TEMPO 0118/0120 BKN020 OVC035 FM012300 30006KT P6SM SCT035 BKN060 FM021000 24004KT P6SM OVC020

KGRF  (14.7 nm SW)   (most recent observation was updatred at 12:10 UTC)
012105Z 0121/0303 27008KT 9999 SCT025 BKN100 BKN200 QNH3008INS BECMG 0202/0203 29006KT 9999 BKN030 BKN100 BKN200 QNH3006INS BECMG 0208/0209 VRB06KT 9999 BKN015 BKN030 BKN200 QNH3008INS BECMG 0219/0220 28006KT 9999 BKN025 QNH3007INS TX22/0123Z TN10/0213Z


KTCM  (20.2 nm SW)   (most recent observation was updatred at 12:15 UTC)
AMD 012152Z 0121/0303 27008KT 9999 SCT025 SCT100 QNH3008INS BECMG 0202/0203 29006KT 9999 BKN030 BKN100 BKN200 QNH3006INS BECMG 0208/0209 VRB06KT 9999 BKN015 BKN030 BKN200 QNH3008INS BECMG 0219/0220 28006KT 9999 BKN025 QNH3007INS TX22/0123Z TN10/0213Z AMD 012150
GlobalAir.com is loading additional information.
 Current Weather at OLM
71.0 F° (21.7 C°)

Northeast winds at 4.6 mph
Pressure:
30.11 in
Humidity:
51%
Wind:
Northeast at 4.6 mph
Dew Point:
52.0 F° (11.1 C°)
Visibility:
10.00 mi
OLM NOAA Radar




Find All Airport Services Find A Hotel Find A Rental Car Find A Golf Course Find A Restaurant $100 Hamburger



Airport Weather Forecast for KOLM

Translated METAR for KOLM (2154 UTC)
METAR:
KOLM 012154Z 34006KT 10SM FEW060 FEW110 23/12 A3009 RMK AO2 SLP190 T02280117
Conditions at:
KOLM (Olympia Rgnl, WA) observed 2154 UTC 01 July 2016
Temperature:
23°C (73.4°F)
Dewpoint:
12°C (53.6°F) [RH = 49.9]
Pressure:
30.09 inches Hg (1019 mb)
pressure at sea level is 190 in Hg
Winds:
from the NNW (340 degrees) at 6.9 mph (6 knots: 3.1 m/s)
Visibility:
10 mile(s)
Ceiling:
at least 12,000 feet AGL
Clouds:
Few Clouds at 6,000 feet AGL
Few Clouds at 11,000 feet AGL
Remarks:
site is automated and HAS a precipitation sensor

Translated TAF for KOLM (Olympia Rgnl, WA) (1736 UTC)
TAF text:
KOLM 011736Z 0118/0218 20003KT P6SM SCT020 BKN035 BKN250
Forecast period:
Friday Jul 01 2016 18:00 UTC - Saturday Jul 02 2016 18:00 UTC
Forecast type:
FROM: standard forecast or significant change
Winds:
from the SSW (200 degrees) at 3.5 mph (3 knots: 1.5 m/s)
Visibility:
6 or more mile(s) (9.7+ km)
Ceiling:
3,500 feet AGL
Clouds:
Scattered Clouds at 2,000 feet AGL
Broken Cloud Cover at 3,500 feet AGL
Broken Cloud Cover at 25,000 feet AGL
Weather:
no significant weather observed at this time
TAF text:
0118/0120 BKN020 OVC035
Forecast period:
Saturday Jul 02 2016 18:00 UTC - Saturday Jul 02 2016 20:00 UTC
Forecast type:
FROM: standard forecast or significant change
Winds:
Visibility:
Ceiling:
2,000 feet AGL
Clouds:
Broken Cloud Cover at 2,000 feet AGL
Overcast Skies at 3,500 feet AGL
Weather:
no significant weather observed at this time
TAF text:
FM012300 30006KT P6SM SCT035 BKN060
Forecast period:
Friday Jul 01 2016 23:00 UTC - Saturday Jul 02 2016 10:00 UTC
Forecast type:
FROM: standard forecast or significant change
Winds:
from the WNW (300 degrees) at 6.9 mph (6 knots: 3.1 m/s)
Visibility:
6 or more mile(s) (9.7+ km)
Ceiling:
6,000 feet AGL
Clouds:
Scattered Clouds at 3,500 feet AGL
Broken Cloud Cover at 6,000 feet AGL
Weather:
no significant weather observed at this time
TAF text:
FM021000 24004KT P6SM OVC020
Forecast period:
Saturday Jul 02 2016 10:00 UTC - Saturday Jul 02 2016 18:00 UTC
Forecast type:
FROM: standard forecast or significant change
Winds:
from the WSW (240 degrees) at 4.6 mph (4 knots: 2.1 m/s)
Visibility:
6 or more mile(s) (9.7+ km)
Ceiling:
2,000 feet AGL
Clouds:
Overcast Skies at 2,000 feet AGL
Weather:
no significant weather observed at this time
FBO's on the Field
FBO Company Facility Photos Services Transportation Aviation Fuel Prices: Prices include tax
Catering Weather Repair Courtesy Rental Type 100LL JetA JetA+ MOGAS 8087
 
Glacier Jet Center

Glacier Jet Center logo
Currently rated 5 by 1 person
FS:
Last Updated: May-24
Login to update fuel prices
SS:
Contact Glacier Jet CenterMore FBO Information
 
Jorgensen Air Service

Jorgensen Air Service logo
Currently rated 5 by 3 people
FS:
Last Updated: Jun-29
Login to update fuel prices
SS:
Contact Jorgensen Air ServiceMore FBO Information
 
Add another FBO Facility Photos Catering Weather Repair Courtesy Rental Type 100LL JetA JetA+ MOGAS 8087
Services Transportation Aviation Fuel Prices: Prices include tax


model-print
model-print
model-print
model-print